9G3 weather

Akron Airport/Jesson Field
Akron, New York, United States

Public forecast

Using degrees Fahrenheit for public forecast. Weather courtesy of forecast.io.

Closest aviation weather report (METAR) to Akron Airport/Jesson Field

Closest report is Buffalo Niagara International Airport, 12.0 nm (22.2 km) WSW. Retrieved 2019/12/09 00:54 UTC (60 minutes ago):

KBUF 090054Z 20018G25KT 10SM SCT040 BKN180 07/01 A2998 RMK AO2 PK WND 19026/0014 SLP157 T00670006

Closest aviation forecast (TAF) to Akron Airport/Jesson Field

Closest forecast is Buffalo Niagara International Airport, 12.0 nm (22.2 km) WSW. Retrieved 2019-12-09 00:36 UTC (1 hour ago):

TAF KBUF 082334Z 0900/0924 19018G22KT P6SM BKN040 OVC150 FM090700 20010KT P6SM OVC030 FM091000 17008KT P6SM VCSH OVC025 FM091300 18011G17KT 6SM -RA OVC015